Time;durP1;ratioP1;P1;durP2;ratioP2;P2;SDS_P1;SDS_P2;PMS_P1;PMS_P2;Temp;Humidity;BMP_temperature;BMP_pressure;BME280_temperature;BME280_humidity;BME280_pressure;Samples;Min_cycle;Max_cycle;Signal;HPM_P1;HPM_P2
2022/06/12 00:01:41;;;;;;;8.38;2.40;;;;;;;10.44;86.50;101189.50;6165820;23;20001;-77
2022/06/12 00:05:03;;;;;;;14.57;2.67;;;;;;;10.54;86.66;101203.38;6140908;23;20015;-75
2022/06/12 00:14:02;;;;;;;8.98;3.45;;;;;;;10.44;87.59;101211.38;6143554;23;20029;-74
2022/06/12 00:16:35;;;;;;;14.60;3.67;;;;;;;10.39;88.45;101200.34;6131912;23;20042;-74
2022/06/12 00:23:05;;;;;;;10.93;2.78;;;;;;;10.40;89.04;101224.72;6133922;23;20021;-73
2022/06/12 00:26:04;;;;;;;18.27;3.08;;;;;;;10.39;89.15;101222.22;6107995;23;20034;-73
2022/06/12 00:28:58;;;;;;;;;;;;;;;;;;;;;
2022/06/12 00:31:27;;;;;;;13.98;3.95;;;;;;;10.04;89.70;101176.72;6133509;23;20021;-74
2022/06/12 00:34:47;;;;;;;10.48;2.80;;;;;;;10.02;89.96;101178.88;6081934;23;20018;-74
2022/06/12 00:43:59;;;;;;;19.65;3.25;;;;;;;10.24;90.91;101215.38;6008472;23;20017;-73
2022/06/12 00:47:00;;;;;;;11.38;3.00;;;;;;;10.20;90.46;101219.66;6020600;23;20011;-73
2022/06/12 00:49:36;;;;;;;12.38;3.15;;;;;;;10.06;90.46;101218.28;6042383;23;20007;-72
2022/06/12 00:52:33;;;;;;;15.20;2.40;;;;;;;10.02;90.83;101217.13;6093892;23;20030;-73
2022/06/12 00:55:46;;;;;;;11.85;2.80;;;;;;;9.96;91.14;101225.22;6107888;23;20065;-73
2022/06/12 00:58:17;;;;;;;15.98;3.10;;;;;;;9.96;91.21;101227.13;5958883;23;20084;-73
2022/06/12 01:01:01;;;;;;;11.32;3.10;;;;;;;9.84;91.29;101221.69;6130816;23;20028;-75
2022/06/12 01:14:11;;;;;;;8.90;3.13;;;;;;;9.78;92.15;101225.38;5956171;24;20016;-73
2022/06/12 01:29:00;;;;;;;8.02;2.90;;;;;;;9.74;92.81;101227.75;6132064;23;20049;-72
2022/06/12 01:31:48;;;;;;;18.60;2.95;;;;;;;9.73;92.80;101228.81;6110892;23;20075;-72
2022/06/12 01:34:56;;;;;;;12.55;3.15;;;;;;;9.71;92.58;101217.31;6123049;23;20009;-73
2022/06/12 01:49:07;;;;;;;;;;;;;;;;;;;;;
2022/06/12 01:51:50;;;;;;;15.55;3.42;;;;;;;9.57;93.39;101211.28;5907460;24;20037;-73
2022/06/12 01:55:01;;;;;;;14.65;3.80;;;;;;;9.45;93.77;101191.38;5880834;24;20009;-74
2022/06/12 01:58:01;;;;;;;10.93;3.55;;;;;;;9.56;93.82;101206.91;5896188;24;20076;-73
2022/06/12 02:00:34;;;;;;;14.13;3.65;;;;;;;9.46;93.68;101189.47;5905011;24;20073;-75
2022/06/12 02:03:29;;;;;;;11.70;3.17;;;;;;;9.42;94.00;101187.22;5905977;24;19994;-73
2022/06/12 02:05:58;;;;;;;11.93;3.30;;;;;;;9.45;93.87;101199.56;6049805;23;20065;-73
2022/06/12 02:08:47;;;;;;;9.48;2.60;;;;;;;9.47;93.88;101202.88;6132797;23;20070;-74
2022/06/12 02:14:14;;;;;;;16.48;3.95;;;;;;;9.45;94.47;101205.03;6132827;23;20029;-73
2022/06/12 02:16:47;;;;;;;13.60;3.78;;;;;;;9.39;94.16;101200.53;6132601;23;20370;-73
2022/06/12 02:19:21;;;;;;;19.70;3.83;;;;;;;9.38;94.55;101196.13;6108964;23;20045;-74
2022/06/12 02:21:57;;;;;;;17.98;3.85;;;;;;;9.37;94.90;101206.19;6134335;23;20002;-74
2022/06/12 02:24:37;;;;;;;16.73;3.33;;;;;;;9.36;94.42;101203.72;6108503;23;20337;-74
2022/06/12 02:27:12;;;;;;;16.55;3.45;;;;;;;9.35;94.50;101204.78;6131702;23;20022;-74
2022/06/12 02:30:06;;;;;;;11.25;3.03;;;;;;;9.31;94.54;101214.53;6132452;23;20001;-74
2022/06/12 02:32:38;;;;;;;12.13;3.03;;;;;;;9.20;94.97;101207.97;6131877;23;19993;-74
2022/06/12 02:35:13;;;;;;;7.05;2.55;;;;;;;9.21;94.84;101221.41;6132169;23;20020;-74
2022/06/12 02:37:45;;;;;;;8.65;3.25;;;;;;;9.15;94.80;101219.63;6132400;23;20001;-73
2022/06/12 02:40:21;;;;;;;11.82;3.35;;;;;;;9.08;95.02;101202.53;6129776;23;19993;-74
2022/06/12 02:42:58;;;;;;;13.80;3.40;;;;;;;9.08;94.77;101199.81;6131183;23;20032;-73
2022/06/12 02:45:35;;;;;;;10.13;3.13;;;;;;;9.18;95.56;101210.13;6141201;23;20097;-74
2022/06/12 02:48:01;;;;;;;14.30;3.13;;;;;;;9.19;95.42;101203.63;6128320;23;20063;-73
2022/06/12 02:50:33;;;;;;;14.63;3.35;;;;;;;9.12;95.61;101200.19;6128016;23;20205;-72
2022/06/12 02:53:19;;;;;;;15.13;3.30;;;;;;;9.05;95.16;101194.81;6127605;23;20033;-74
2022/06/12 02:55:45;;;;;;;16.75;3.28;;;;;;;9.11;95.52;101207.50;6129421;23;20006;-74
2022/06/12 02:58:49;;;;;;;15.77;3.28;;;;;;;9.09;95.40;101205.03;6127327;23;20014;-73
2022/06/12 03:01:29;;;;;;;13.82;3.47;;;;;;;9.02;95.37;101200.75;6150240;23;20429;-74
2022/06/12 03:04:40;;;;;;;8.30;2.90;;;;;;;8.97;95.40;101195.19;6131350;23;20010;-72
2022/06/12 03:07:09;;;;;;;6.63;2.97;;;;;;;8.96;95.47;101204.44;6151388;23;20009;-74
2022/06/12 03:09:59;;;;;;;10.38;2.80;;;;;;;8.90;95.68;101215.22;6128782;23;20092;-73
2022/06/12 03:13:13;;;;;;;7.85;2.53;;;;;;;8.87;95.20;101212.94;6130575;23;20008;-72
2022/06/12 03:16:25;;;;;;;6.18;2.25;;;;;;;8.83;95.10;101217.22;6125873;23;20002;-73
2022/06/12 03:19:00;;;;;;;9.23;2.10;;;;;;;8.71;95.18;101203.56;6130775;23;20075;-73
2022/06/12 03:21:41;;;;;;;12.63;2.67;;;;;;;8.86;94.91;101222.22;6129446;23;20005;-73
2022/06/12 03:24:09;;;;;;;14.18;3.08;;;;;;;8.80;95.26;101201.31;6106369;23;20006;-73
2022/06/12 03:27:03;;;;;;;14.73;3.03;;;;;;;8.89;95.35;101215.44;6130353;23;20057;-74
2022/06/12 03:29:57;;;;;;;15.10;2.83;;;;;;;8.93;95.13;101216.66;6132636;23;20010;-73
2022/06/12 03:32:40;;;;;;;11.00;3.72;;;;;;;8.83;96.06;101200.03;6105300;23;20418;-74
2022/06/12 03:35:25;;;;;;;10.80;2.60;;;;;;;8.89;95.75;101210.84;6132829;23;20029;-74
2022/06/12 03:38:18;;;;;;;14.50;3.20;;;;;;;8.73;95.78;101189.69;6107487;23;20002;-75
2022/06/12 03:41:26;;;;;;;;;;;;;;;;;;;;;
2022/06/12 03:44:14;;;;;;;9.50;3.50;;;;;;;8.67;96.05;101190.63;6130747;23;20025;-73
2022/06/12 03:47:21;;;;;;;;;;;;;;;;;;;;;
2022/06/12 03:49:56;;;;;;;17.92;3.92;;;;;;;8.76;96.47;101208.34;6133401;23;20046;-73
2022/06/12 03:52:46;;;;;;;11.73;2.95;;;;;;;8.74;97.14;101210.44;6131221;23;20010;-73
2022/06/12 03:58:29;;;;;;;7.95;3.13;;;;;;;8.61;96.95;101192.41;6133595;23;20092;-72
2022/06/12 04:01:11;;;;;;;7.35;3.08;;;;;;;8.57;96.71;101202.09;6133805;23;20002;-75
2022/06/12 04:04:07;;;;;;;;;;;;;;;;;;;;;
2022/06/12 04:17:45;;;;;;;14.32;3.58;;;;;;;8.80;99.53;101212.22;5987402;24;20903;-74
2022/06/12 04:24:54;;;;;;;;;;;;;;;;;;;;;
2022/06/12 04:34:43;;;;;;;14.65;3.55;;;;;;;8.79;99.92;101182.47;6041527;23;20067;-75
2022/06/12 04:37:32;;;;;;;20.45;3.97;;;;;;;8.71;99.96;101170.03;6039839;23;20019;-74
2022/06/12 04:40:03;;;;;;;18.67;3.97;;;;;;;8.82;99.40;101180.13;6138681;23;20002;-74
2022/06/12 04:42:53;;;;;;;13.73;3.35;;;;;;;8.99;99.08;101206.69;6127422;23;20085;-75
2022/06/12 04:45:58;;;;;;;14.68;3.80;;;;;;;8.75;99.39;101160.31;6127239;23;20001;-76
2022/06/12 04:55:38;;;;;;;;;;;;;;;;;;;;;
2022/06/12 04:58:09;;;;;;;17.30;4.13;;;;;;;8.95;98.24;101180.94;6017712;23;20054;-75
2022/06/12 05:00:43;;;;;;;14.05;3.38;;;;;;;9.10;98.17;101189.50;5994718;23;20023;-75
2022/06/12 05:11:14;;;;;;;;;;;;;;;;;;;;;
2022/06/12 05:14:36;;;;;;;;;;;;;;;;;;;;;
2022/06/12 05:20:54;;;;;;;15.57;3.42;;;;;;;9.60;96.04;101210.78;5903826;24;20043;-77
2022/06/12 05:24:00;;;;;;;;;;;;;;;;;;;;;
2022/06/12 05:27:25;;;;;;;;;;;;;;;;;;;;;
2022/06/12 05:40:39;;;;;;;;;;;;;;;;;;;;;
2022/06/12 05:44:01;;;;;;;11.30;2.60;;;;;;;10.21;93.85;101199.44;6041369;23;20478;-76
2022/06/12 05:47:22;;;;;;;;;;;;;;;;;;;;;
2022/06/12 05:50:03;;;;;;;14.35;3.15;;;;;;;10.40;92.78;101218.44;5962183;24;20040;-75
2022/06/12 05:53:09;;;;;;;14.30;3.33;;;;;;;10.68;92.37;101241.34;5937072;24;20008;-73
2022/06/12 06:09:52;;;;;;;15.30;3.50;;;;;;;11.14;90.20;101239.34;5687554;24;20012;-74
2022/06/12 06:12:33;;;;;;;;;;;;;;;;;;;;;
2022/06/12 06:19:36;;;;;;;;;;;;;;;;;;;;;
2022/06/12 06:22:50;;;;;;;;;;;;;;;;;;;;;
2022/06/12 06:26:11;;;;;;;;;;;;;;;;;;;;;
2022/06/12 06:33:20;;;;;;;;;;;;;;;;;;;;;
2022/06/12 06:43:03;;;;;;;17.45;3.50;;;;;;;12.33;85.06;101226.13;6039598;23;20014;-73
2022/06/12 06:48:13;;;;;;;14.60;2.67;;;;;;;12.62;83.74;101252.50;6133044;23;20077;-74
2022/06/12 06:50:39;;;;;;;14.45;3.20;;;;;;;12.81;83.17;101272.16;6133307;23;20017;-74
2022/06/12 06:53:09;;;;;;;14.85;3.22;;;;;;;12.86;83.08;101261.22;6136945;23;19998;-74
2022/06/12 06:56:03;;;;;;;10.80;3.15;;;;;;;12.99;82.83;101244.28;6135080;23;20432;-76
2022/06/12 06:59:18;;;;;;;17.73;3.30;;;;;;;13.19;81.36;101262.03;6139619;23;20067;-77
2022/06/12 07:02:39;;;;;;;;;;;;;;;;;;;;;
2022/06/12 07:05:08;;;;;;;10.85;2.85;;;;;;;13.19;80.53;101249.13;6136714;23;20029;-76
2022/06/12 07:08:03;;;;;;;14.65;3.08;;;;;;;13.39;80.25;101284.19;6137407;23;20006;-76
2022/06/12 07:10:41;;;;;;;25.30;4.13;;;;;;;13.50;79.79;101285.06;6121008;23;20029;-75
2022/06/12 07:13:06;;;;;;;13.63;3.85;;;;;;;13.48;79.59;101261.69;6132609;23;20014;-75
2022/06/12 07:15:34;;;;;;;12.45;3.05;;;;;;;13.74;79.55;101258.03;6108290;23;20448;-77
2022/06/12 07:18:03;;;;;;;10.40;3.53;;;;;;;14.03;78.26;101265.00;6138259;23;20001;-77
2022/06/12 07:20:42;;;;;;;14.45;4.05;;;;;;;14.07;76.81;101272.44;6137286;23;20010;-75
2022/06/12 07:23:44;;;;;;;11.85;3.22;;;;;;;13.93;77.74;101255.63;6136874;23;20142;-73
2022/06/12 07:37:14;;;;;;;16.70;2.92;;;;;;;14.36;76.22;101294.03;5908660;24;20092;-74
2022/06/12 07:39:56;;;;;;;11.55;3.17;;;;;;;14.53;75.20;101280.03;5912626;24;20048;-75
2022/06/12 07:42:33;;;;;;;18.60;2.85;;;;;;;14.77;73.43;101283.13;5887644;24;20020;-75
2022/06/12 07:48:06;;;;;;;18.17;2.92;;;;;;;15.08;71.62;101280.38;5900933;24;20021;-76
2022/06/12 07:50:47;;;;;;;;;;;;;;;;;;;;;
2022/06/12 07:53:34;;;;;;;;;;;;;;;;;;;;;
2022/06/12 07:56:00;;;;;;;13.23;3.08;;;;;;;15.49;69.55;101274.88;6111749;23;20037;-75
2022/06/12 07:58:28;;;;;;;19.48;3.05;;;;;;;15.65;68.21;101283.09;6088463;23;20010;-77
2022/06/12 08:01:10;;;;;;;17.88;2.65;;;;;;;15.91;67.94;101302.38;6110819;23;20033;-74
2022/06/12 08:11:01;;;;;;;10.68;2.60;;;;;;;15.67;66.90;101302.94;6022603;23;20147;-75
2022/06/12 08:14:06;;;;;;;9.77;3.33;;;;;;;15.74;66.86;101297.97;6000463;23;20023;-74
2022/06/12 08:16:38;;;;;;;12.87;3.27;;;;;;;15.82;66.34;101258.00;6019511;23;20087;-74
2022/06/12 08:26:05;;;;;;;10.20;2.45;;;;;;;16.65;63.04;101295.09;5907832;24;20010;-76
2022/06/12 08:32:52;;;;;;;11.32;2.22;;;;;;;16.76;61.10;101301.38;5937371;24;20059;-75
2022/06/12 08:36:22;;;;;;;;;;;;;;;;;;;;;
2022/06/12 08:43:09;;;;;;;;;;;;;;;;;;;;;
2022/06/12 08:55:55;;;;;;;13.30;3.35;;;;;;;18.22;56.43;101314.41;5854592;24;20439;-76
2022/06/12 08:59:05;;;;;;;16.33;2.55;;;;;;;18.45;55.67;101300.84;5930856;23;20107;-76
2022/06/12 09:01:30;;;;;;;16.67;2.55;;;;;;;19.17;53.46;101283.16;6036036;23;20002;-77
2022/06/12 09:03:56;;;;;;;12.85;1.55;;;;;;;19.59;52.65;101278.50;6077706;23;20562;-78
2022/06/12 09:10:47;;;;;;;10.38;2.60;;;;;;;18.77;53.36;101264.09;6007497;23;20011;-76
2022/06/12 09:13:46;;;;;;;;;;;;;;;;;;;;;
2022/06/12 09:16:43;;;;;;;6.13;2.03;;;;;;;17.86;54.52;101292.69;6007662;23;20042;-75
2022/06/12 09:19:39;;;;;;;;;;;;;;;;;;;;;
2022/06/12 09:22:13;;;;;;;13.93;2.28;;;;;;;18.25;52.41;101290.88;6168237;23;20429;-76
2022/06/12 09:24:57;;;;;;;6.25;2.22;;;;;;;18.67;52.63;101301.09;6140444;23;20001;-77
2022/06/12 09:28:23;;;;;;;;;;;;;;;;;;;;;
2022/06/12 09:30:54;;;;;;;11.63;2.42;;;;;;;20.54;48.21;101300.16;6167220;23;20032;-74
2022/06/12 09:33:56;;;;;;;8.45;2.00;;;;;;;20.15;48.43;101284.09;6136138;23;20013;-75
2022/06/12 09:40:44;;;;;;;;;;;;;;;;;;;;;
2022/06/12 09:44:43;;;;;;;12.60;2.08;;;;;;;18.13;54.82;101288.53;6128792;23;20045;-78
2022/06/12 09:47:45;;;;;;;;;;;;;;;;;;;;;
2022/06/12 09:54:00;;;;;;;14.85;2.30;;;;;;;18.22;54.95;101270.13;6104354;23;20496;-78
2022/06/12 09:57:25;;;;;;;10.48;2.08;;;;;;;18.97;53.62;101304.53;6134984;23;20065;-78
2022/06/12 10:00:44;;;;;;;16.13;2.13;;;;;;;19.17;50.98;101269.28;6046754;23;20008;-77
2022/06/12 10:03:31;;;;;;;8.95;2.17;;;;;;;20.08;50.06;101305.91;6046351;23;20063;-75
2022/06/12 10:06:25;;;;;;;12.18;2.35;;;;;;;20.85;47.81;101313.41;6134747;23;19998;-76
2022/06/12 10:09:29;;;;;;;8.75;2.00;;;;;;;20.60;46.62;101295.31;6132775;23;20008;-79
2022/06/12 10:15:33;;;;;;;9.73;1.90;;;;;;;22.06;45.06;101300.50;6101461;23;20095;-75
2022/06/12 10:18:31;;;;;;;5.13;1.48;;;;;;;23.35;41.90;101288.19;6130209;23;20433;-77
2022/06/12 10:25:10;;;;;;;;;;;;;;;;;;;;;
2022/06/12 10:28:48;;;;;;;;;;;;;;;;;;;;;
2022/06/12 10:34:47;;;;;;;7.13;1.40;;;;;;;26.91;34.28;101294.66;6035995;23;20086;-78
2022/06/12 10:37:52;;;;;;;;;;;;;;;;;;;;;
2022/06/12 10:41:19;;;;;;;6.53;1.58;;;;;;;32.20;24.33;101299.72;6109727;23;20010;-78
2022/06/12 10:47:47;;;;;;;11.05;1.58;;;;;;;35.29;18.31;101289.66;6024543;23;20103;-78
2022/06/12 10:54:34;;;;;;;7.60;1.70;;;;;;;34.32;20.42;101302.25;5882812;24;20105;-78
2022/06/12 11:00:30;;;;;;;;;;;;;;;;;;;;;
2022/06/12 11:03:37;;;;;;;6.90;1.48;;;;;;;32.96;20.59;101280.25;5911623;24;20040;-78
2022/06/12 11:43:42;;;;;;;9.98;1.88;;;;;;;25.29;29.83;101288.59;5964992;24;20023;-77
2022/06/12 11:46:46;;;;;;;6.38;1.42;;;;;;;26.68;29.00;101285.13;5962931;24;20023;-77
2022/06/12 11:53:31;;;;;;;6.30;1.67;;;;;;;33.35;20.57;101293.72;5959994;23;20019;-77
2022/06/12 12:03:18;;;;;;;;;;;;;;;;;;;;;
2022/06/12 12:23:41;;;;;;;7.60;1.70;;;;;;;35.45;16.82;101246.50;5803291;24;20474;-78
2022/06/12 12:53:23;;;;;;;14.38;1.60;;;;;;;40.07;11.83;101257.19;5784149;24;20050;-78
2022/06/12 12:59:20;;;;;;;6.13;1.40;;;;;;;39.29;12.93;101249.38;5909834;24;20046;-79
2022/06/12 13:12:40;;;;;;;8.98;1.65;;;;;;;39.65;12.79;101234.16;5936761;24;20040;-78
2022/06/12 13:15:48;;;;;;;7.97;1.38;;;;;;;38.92;13.21;101226.53;5946430;23;20021;-79
2022/06/12 13:25:43;;;;;;;8.35;2.05;;;;;;;36.55;14.96;101186.00;6050585;23;20428;-78
2022/06/12 13:41:58;;;;;;;;;;;;;;;;;;;;;
2022/06/12 13:48:20;;;;;;;7.28;1.65;;;;;;;33.66;16.73;101181.56;6165676;23;20064;-77
2022/06/12 13:51:30;;;;;;;7.53;1.58;;;;;;;33.56;17.61;101159.69;6142115;23;20005;-79
2022/06/12 14:18:22;;;;;;;5.43;1.80;;;;;;;36.62;14.29;101205.00;6018681;23;20019;-78
2022/06/12 14:21:31;;;;;;;10.13;1.52;;;;;;;36.85;14.10;101181.50;6106658;23;20061;-78
2022/06/12 14:27:50;;;;;;;10.77;1.95;;;;;;;36.20;14.75;101176.66;6127733;23;20036;-80
2022/06/12 14:37:44;;;;;;;11.77;2.05;;;;;;;36.61;13.74;101167.19;6103399;23;20110;-78
2022/06/12 14:40:37;;;;;;;3.70;1.27;;;;;;;35.97;13.98;101180.19;6075894;23;20335;-77
2022/06/12 14:57:34;;;;;;;10.35;1.80;;;;;;;37.66;13.11;101157.75;5947754;24;20020;-79
2022/06/12 15:00:50;;;;;;;;;;;;;;;;;;;;;
2022/06/12 15:03:50;;;;;;;;;;;;;;;;;;;;;
2022/06/12 15:06:37;;;;;;;;;;;;;;;;;;;;;
2022/06/12 15:12:40;;;;;;;6.70;1.30;;;;;;;36.74;13.85;101147.47;6146602;23;20271;-78
2022/06/12 15:16:09;;;;;;;;;;;;;;;;;;;;;
2022/06/12 15:18:35;;;;;;;5.65;1.67;;;;;;;37.04;12.82;101152.28;6055449;23;20014;-78
2022/06/12 15:21:41;;;;;;;;;;;;;;;;;;;;;
2022/06/12 15:25:03;;;;;;;;;;;;;;;;;;;;;
2022/06/12 15:48:51;;;;;;;;;;;;;;;;;;;;;
2022/06/12 15:51:38;;;;;;;14.10;1.98;;;;;;;34.24;15.63;101136.81;5851347;24;20502;-78
2022/06/12 15:54:19;;;;;;;7.95;1.30;;;;;;;33.33;15.91;101120.47;5855741;24;20470;-78
2022/06/12 16:01:26;;;;;;;;;;;;;;;;;;;;;
2022/06/12 16:04:16;;;;;;;4.55;1.20;;;;;;;33.69;15.54;101097.72;5935783;24;20055;-77
2022/06/12 16:08:13;;;;;;;;;;;;;;;;;;;;;
2022/06/12 16:10:37;;;;;;;6.85;1.73;;;;;;;35.71;14.91;101122.72;5929825;24;20024;-77
2022/06/12 16:13:11;;;;;;;7.17;1.53;;;;;;;35.47;14.77;101107.53;5938034;24;20005;-78
2022/06/12 16:19:40;;;;;;;8.25;2.47;;;;;;;36.30;14.42;101103.75;5943018;24;20003;-78
2022/06/12 16:22:26;;;;;;;9.95;1.65;;;;;;;36.41;14.31;101106.44;5994357;23;20027;-78
2022/06/12 16:25:12;;;;;;;5.93;1.95;;;;;;;36.09;14.43;101130.44;6022472;23;20018;-79
2022/06/12 16:28:20;;;;;;;;;;;;;;;;;;;;;
2022/06/12 16:42:22;;;;;;;5.78;1.50;;;;;;;34.06;17.26;101100.00;5836776;24;20118;-78
2022/06/12 16:45:12;;;;;;;5.50;1.48;;;;;;;34.72;16.54;101141.00;5900825;24;20012;-79
2022/06/12 17:11:18;;;;;;;7.30;1.63;;;;;;;33.80;17.63;101121.19;6140476;23;20036;-78
2022/06/12 17:13:57;;;;;;;;;;;;;;;;;;;;;
2022/06/12 17:16:34;;;;;;;5.70;1.65;;;;;;;33.21;18.64;101130.97;6162649;23;20028;-75
2022/06/12 17:25:47;;;;;;;9.02;1.60;;;;;;;30.41;21.77;101133.75;6160193;23;20012;-74
2022/06/12 17:28:15;;;;;;;8.35;2.25;;;;;;;30.13;21.31;101125.75;6110144;23;20476;-74
2022/06/12 17:30:42;;;;;;;5.55;1.83;;;;;;;29.47;22.74;101122.38;6135676;23;20012;-73
2022/06/12 17:33:18;;;;;;;9.32;1.92;;;;;;;28.29;23.30;101125.50;6139273;23;20022;-74
2022/06/12 17:35:47;;;;;;;7.40;1.85;;;;;;;27.19;24.63;101116.97;6136783;23;20028;-75
2022/06/12 17:38:18;;;;;;;7.97;2.25;;;;;;;27.16;25.05;101120.47;6135072;23;20088;-74
2022/06/12 17:40:46;;;;;;;9.20;2.33;;;;;;;26.91;24.84;101119.84;6110930;23;20021;-73
2022/06/12 18:20:49;;;;;;;;;;;;;;;;;;;;;
2022/06/12 18:26:57;;;;;;;;;;;;;;;;;;;;;
2022/06/12 18:29:24;;;;;;;12.45;4.35;;;;;;;18.15;41.22;101125.78;6140664;23;20049;-76
2022/06/12 18:31:49;;;;;;;14.20;6.45;;;;;;;17.95;41.90;101127.69;6162014;23;20005;-76
2022/06/12 18:34:20;;;;;;;15.18;1.75;;;;;;;17.73;42.69;101119.16;6163302;23;20009;-75
2022/06/12 18:36:46;;;;;;;8.27;1.55;;;;;;;17.60;42.41;101115.97;6112507;23;20033;-73
2022/06/12 18:39:14;;;;;;;8.23;1.50;;;;;;;17.47;42.71;101119.47;6135410;23;20009;-75
2022/06/12 18:41:41;;;;;;;11.15;1.65;;;;;;;17.35;42.53;101113.56;6159440;23;20010;-73
2022/06/12 18:44:07;;;;;;;7.75;1.70;;;;;;;17.28;44.35;101111.94;6134548;23;20013;-73
2022/06/12 18:46:34;;;;;;;6.85;1.70;;;;;;;17.21;44.44;101130.81;6137318;23;20005;-73
2022/06/12 18:48:59;;;;;;;5.85;1.92;;;;;;;17.04;45.05;101119.41;6136033;23;20001;-74
2022/06/12 18:51:26;;;;;;;14.32;2.08;;;;;;;17.02;45.68;101133.50;6135453;23;20016;-75
2022/06/12 18:53:52;;;;;;;14.50;2.20;;;;;;;16.87;45.53;101131.75;6136327;23;20016;-78
2022/06/12 18:56:18;;;;;;;7.30;2.03;;;;;;;16.92;45.62;101145.50;6133966;23;20021;-74
2022/06/12 18:58:44;;;;;;;14.90;2.28;;;;;;;16.73;46.40;101136.25;6159938;23;20002;-74
2022/06/12 19:01:13;;;;;;;8.40;2.28;;;;;;;16.53;47.12;101132.56;6137528;23;20036;-74
2022/06/12 19:03:39;;;;;;;9.73;1.58;;;;;;;16.51;47.71;101145.81;6163218;23;20009;-74
2022/06/12 19:06:24;;;;;;;6.88;2.15;;;;;;;16.31;48.47;101138.56;6136068;23;20006;-75
2022/06/12 19:08:53;;;;;;;10.13;2.20;;;;;;;16.17;49.07;101130.06;6133297;23;20363;-76
2022/06/12 19:11:36;;;;;;;12.43;1.92;;;;;;;16.12;49.49;101143.94;6159265;23;20008;-73
2022/06/12 19:14:06;;;;;;;8.00;2.25;;;;;;;15.98;49.81;101131.88;6155589;23;20040;-72
2022/06/12 19:16:33;;;;;;;9.50;1.83;;;;;;;15.85;49.77;101123.09;6158782;23;20010;-74
2022/06/12 19:19:00;;;;;;;5.25;1.58;;;;;;;15.84;50.61;101143.53;6128112;23;20022;-73
2022/06/12 19:21:25;;;;;;;13.30;2.97;;;;;;;15.69;51.14;101136.13;6105451;23;20025;-75
2022/06/12 19:23:51;;;;;;;14.00;2.17;;;;;;;15.57;51.31;101143.09;6130377;23;20018;-72
2022/06/12 19:26:34;;;;;;;5.93;1.83;;;;;;;15.41;51.60;101142.31;6132015;23;20010;-77
2022/06/12 19:29:01;;;;;;;8.57;1.83;;;;;;;15.34;51.70;101148.13;6132768;23;20013;-73
2022/06/12 19:31:27;;;;;;;14.27;2.20;;;;;;;15.24;52.26;101157.22;6133879;23;20050;-76
2022/06/12 19:33:58;;;;;;;8.23;1.77;;;;;;;15.15;52.63;101158.91;6133283;23;20005;-76
2022/06/12 19:36:27;;;;;;;9.23;1.83;;;;;;;15.02;53.29;101149.28;6134381;23;20093;-76
2022/06/12 19:39:08;;;;;;;8.95;2.05;;;;;;;14.84;53.46;101147.94;6136761;23;20017;-76
2022/06/12 19:42:26;;;;;;;;;;;;;;;;;;;;;
2022/06/12 19:45:05;;;;;;;;;;;;;;;;;;;;;
2022/06/12 19:47:56;;;;;;;5.30;1.77;;;;;;;14.40;55.71;101160.31;6137618;23;20022;-76
2022/06/12 19:50:24;;;;;;;8.07;2.10;;;;;;;14.27;56.02;101160.84;6136949;23;20084;-78
2022/06/12 19:53:47;;;;;;;8.38;1.75;;;;;;;13.88;55.66;101120.88;6136730;23;20084;-79
2022/06/12 22:06:21;;;;;;;11.55;1.83;;;;;;;10.57;78.82;101191.94;6134581;23;20368;-75
2022/06/12 22:08:57;;;;;;;9.00;2.38;;;;;;;10.54;78.14;101176.03;6132727;23;20014;-76
2022/06/12 22:11:25;;;;;;;8.02;2.50;;;;;;;10.87;78.02;101218.13;6109309;23;20013;-74
2022/06/12 22:14:11;;;;;;;7.38;2.40;;;;;;;10.82;77.40;101209.84;6114200;23;20024;-73
2022/06/12 22:16:50;;;;;;;;;;;;;;;;;;;;;
2022/06/12 22:19:18;;;;;;;17.92;2.67;;;;;;;10.91;77.91;101205.63;6142934;23;20029;-76
2022/06/12 22:21:52;;;;;;;11.88;2.50;;;;;;;10.84;77.63;101180.31;6166672;23;20005;-74
2022/06/12 22:24:21;;;;;;;14.88;2.50;;;;;;;10.92;77.67;101203.69;6169123;23;20012;-73
2022/06/12 22:26:52;;;;;;;10.65;2.75;;;;;;;10.84;77.89;101194.00;6167590;23;20420;-74
2022/06/12 22:29:21;;;;;;;9.82;2.45;;;;;;;10.94;78.79;101204.28;6143951;23;20012;-75
2022/06/12 22:31:47;;;;;;;9.43;2.53;;;;;;;10.89;78.66;101205.00;6117998;23;20425;-74
2022/06/12 22:34:13;;;;;;;7.53;2.45;;;;;;;10.77;78.76;101196.91;6144688;23;20148;-74
2022/06/12 22:36:41;;;;;;;16.02;3.15;;;;;;;10.83;78.82;101214.22;6144120;23;20009;-74
2022/06/12 22:39:15;;;;;;;14.43;2.83;;;;;;;10.68;79.75;101201.13;6144291;23;20040;-74
2022/06/12 22:41:41;;;;;;;12.10;2.50;;;;;;;10.80;79.82;101218.28;6144582;23;20009;-75
2022/06/12 22:44:07;;;;;;;7.88;2.53;;;;;;;10.67;79.99;101201.38;6116936;23;20364;-75
2022/06/12 22:46:32;;;;;;;12.35;2.83;;;;;;;10.65;79.37;101224.31;6143030;23;20012;-74
2022/06/12 22:48:58;;;;;;;11.93;2.47;;;;;;;10.65;80.33;101220.78;6141717;23;20039;-75
2022/06/12 22:51:24;;;;;;;15.30;2.38;;;;;;;10.55;80.43;101207.75;6168812;23;20005;-74
2022/06/12 22:53:53;;;;;;;12.88;2.60;;;;;;;10.51;80.72;101203.00;6138888;23;20014;-76
2022/06/12 22:56:19;;;;;;;15.95;2.67;;;;;;;10.52;81.18;101219.19;6166447;23;20006;-74
2022/06/12 22:58:47;;;;;;;13.63;3.30;;;;;;;10.55;81.55;101221.41;6165431;23;19994;-71
2022/06/12 23:01:16;;;;;;;14.55;3.03;;;;;;;10.43;81.97;101212.47;6140172;23;20016;-75
2022/06/12 23:03:42;;;;;;;10.18;3.10;;;;;;;10.41;82.67;101218.19;6166708;23;20001;-73
2022/06/12 23:06:07;;;;;;;12.98;2.92;;;;;;;10.41;83.13;101209.13;6164445;23;20020;-74
2022/06/12 23:08:33;;;;;;;18.83;3.55;;;;;;;10.51;82.86;101236.66;6108566;23;20029;-72
2022/06/12 23:11:00;;;;;;;6.45;2.03;;;;;;;10.45;82.92;101229.44;6132787;23;20401;-73
2022/06/12 23:13:28;;;;;;;8.65;2.35;;;;;;;10.35;83.07;101221.06;6132026;23;20062;-73
2022/06/12 23:15:54;;;;;;;9.90;2.30;;;;;;;10.38;83.18;101226.03;6133852;23;20010;-72
2022/06/12 23:18:20;;;;;;;10.50;2.78;;;;;;;10.39;83.75;101227.69;6111111;23;20024;-73
2022/06/12 23:20:55;;;;;;;10.45;2.88;;;;;;;10.39;83.41;101233.97;6091062;23;20013;-76
2022/06/12 23:23:26;;;;;;;12.68;3.08;;;;;;;10.31;83.58;101216.03;6114736;23;20115;-73
2022/06/12 23:25:59;;;;;;;11.43;2.67;;;;;;;10.40;84.29;101215.69;6137772;23;20010;-73
2022/06/12 23:39:31;;;;;;;;;;;;;;;;;;;;;
